Time;durP1;ratioP1;P1;durP2;ratioP2;P2;SDS_P1;SDS_P2;PMS_P1;PMS_P2;Temp;Humidity;BMP_temperature;BMP_pressure;BME280_temperature;BME280_humidity;BME280_pressure;Samples;Min_cycle;Max_cycle;Signal;HPM_P1;HPM_P2
2024/04/13 00:01:57;;;;;;;12.63;4.47;;;18.00;94.80;;;;;;5490811;26;20468;-57
2024/04/13 00:04:28;;;;;;;8.20;4.80;;;18.00;94.90;;;;;;5489963;26;20832;-58
2024/04/13 00:06:54;;;;;;;11.73;5.20;;;18.00;94.90;;;;;;5490622;26;20512;-57
2024/04/13 00:09:22;;;;;;;8.27;4.87;;;17.90;94.90;;;;;;5490651;26;20443;-57
2024/04/13 00:11:48;;;;;;;9.70;5.10;;;17.90;94.90;;;;;;5490612;26;20211;-57
2024/04/13 00:14:17;;;;;;;11.83;4.67;;;17.90;94.90;;;;;;5490752;26;20798;-57
2024/04/13 00:16:43;;;;;;;10.97;4.80;;;18.00;95.10;;;;;;5490506;26;20226;-58
2024/04/13 00:19:11;;;;;;;11.63;4.37;;;17.90;95.10;;;;;;5490326;26;20565;-57
2024/04/13 00:21:43;;;;;;;10.90;5.00;;;17.90;95.10;;;;;;5490290;26;20215;-56
2024/04/13 00:24:13;;;;;;;11.07;4.80;;;17.90;95.10;;;;;;5490625;26;20459;-56
2024/04/13 00:26:40;;;;;;;9.53;5.80;;;17.90;95.20;;;;;;5490505;26;20977;-57
2024/04/13 00:29:08;;;;;;;15.33;5.40;;;17.90;95.30;;;;;;5490181;26;20684;-57
2024/04/13 00:31:34;;;;;;;16.70;5.90;;;17.90;95.40;;;;;;5490282;26;20551;-56
2024/04/13 00:34:04;;;;;;;14.10;5.37;;;17.80;95.40;;;;;;5490299;26;20452;-56
2024/04/13 00:36:32;;;;;;;13.57;6.70;;;17.80;95.40;;;;;;5490360;26;20246;-56
2024/04/13 00:39:04;;;;;;;15.17;6.70;;;17.80;95.50;;;;;;5490239;26;20455;-56
2024/04/13 00:41:30;;;;;;;16.07;5.90;;;17.80;95.60;;;;;;5490263;26;21052;-56
2024/04/13 00:44:00;;;;;;;20.93;6.10;;;17.80;95.70;;;;;;5490341;26;20501;-56
2024/04/13 00:46:31;;;;;;;21.33;6.97;;;17.80;95.80;;;;;;5489951;26;20787;-57
2024/04/13 00:49:01;;;;;;;14.07;5.60;;;17.80;95.90;;;;;;5490103;26;20455;-56
2024/04/13 00:51:29;;;;;;;11.30;5.57;;;17.80;96.00;;;;;;5490064;26;20624;-57
2024/04/13 00:53:59;;;;;;;12.00;5.90;;;17.70;96.10;;;;;;5490079;26;20451;-56
2024/04/13 00:56:28;;;;;;;9.73;5.40;;;17.70;96.20;;;;;;5490075;26;20499;-56
2024/04/13 00:58:57;;;;;;;9.07;5.07;;;17.70;96.30;;;;;;5489913;26;20544;-56
2024/04/13 01:01:24;;;;;;;12.10;5.30;;;17.70;96.40;;;;;;5490024;26;20463;-57
2024/04/13 01:03:53;;;;;;;10.90;5.00;;;17.70;96.40;;;;;;5490231;26;20510;-56
2024/04/13 01:06:20;;;;;;;13.17;5.30;;;17.70;96.50;;;;;;5489919;26;20903;-56
2024/04/13 01:08:50;;;;;;;11.80;6.00;;;17.70;96.50;;;;;;5489808;26;20471;-56
2024/04/13 01:11:16;;;;;;;13.30;5.97;;;17.70;96.60;;;;;;5489963;26;20499;-56
2024/04/13 01:13:47;;;;;;;6.57;4.83;;;17.70;96.70;;;;;;5489914;26;20445;-56
2024/04/13 01:16:14;;;;;;;10.80;5.00;;;17.70;96.70;;;;;;5489845;26;20519;-56
2024/04/13 01:18:43;;;;;;;10.37;4.87;;;17.60;96.60;;;;;;5489681;26;20512;-56
2024/04/13 01:21:09;;;;;;;13.23;5.33;;;17.60;96.80;;;;;;5489773;26;20557;-56
2024/04/13 01:23:43;;;;;;;10.77;4.90;;;17.60;96.90;;;;;;5489548;26;20463;-56
2024/04/13 01:26:12;;;;;;;9.17;4.77;;;17.60;97.00;;;;;;5489610;26;20447;-56
2024/04/13 01:28:41;;;;;;;14.47;6.03;;;17.60;96.90;;;;;;5489351;26;20565;-56
2024/04/13 01:31:09;;;;;;;16.10;6.50;;;17.50;96.80;;;;;;5489394;26;20447;-56
2024/04/13 01:33:37;;;;;;;9.77;5.30;;;17.50;96.90;;;;;;5489359;26;20624;-56
2024/04/13 01:36:03;;;;;;;16.23;6.33;;;17.50;96.90;;;;;;5489455;26;20499;-56
2024/04/13 01:38:32;;;;;;;7.17;5.50;;;17.50;96.90;;;;;;5489022;26;20475;-56
2024/04/13 01:40:58;;;;;;;11.93;5.47;;;17.50;96.90;;;;;;5489550;26;20515;-56
2024/04/13 01:43:29;;;;;;;9.20;5.50;;;17.50;96.90;;;;;;5489101;26;20569;-56
2024/04/13 01:45:55;;;;;;;9.50;6.03;;;17.40;96.80;;;;;;5489295;26;20539;-56
2024/04/13 01:48:23;;;;;;;12.40;5.47;;;17.40;96.80;;;;;;5489050;26;20502;-58
2024/04/13 01:50:49;;;;;;;12.50;6.17;;;17.40;96.80;;;;;;5488925;26;20223;-56
2024/04/13 01:53:18;;;;;;;11.77;6.37;;;17.40;96.80;;;;;;5489162;26;20655;-56
2024/04/13 01:55:46;;;;;;;10.57;4.90;;;17.40;96.90;;;;;;5489042;26;20214;-56
2024/04/13 01:58:14;;;;;;;7.83;5.00;;;17.40;97.00;;;;;;5489942;26;20519;-56
2024/04/13 02:00:43;;;;;;;13.73;6.03;;;17.40;97.10;;;;;;5492533;26;20459;-56
2024/04/13 02:03:11;;;;;;;11.00;5.27;;;17.40;97.40;;;;;;5492748;26;20561;-56
2024/04/13 02:05:37;;;;;;;9.40;5.07;;;17.40;97.50;;;;;;5492484;26;20443;-56
2024/04/13 02:08:07;;;;;;;9.00;5.20;;;17.40;97.60;;;;;;5492565;26;21087;-58
2024/04/13 02:10:34;;;;;;;8.13;4.70;;;17.40;97.70;;;;;;5492375;26;20215;-57
2024/04/13 02:13:03;;;;;;;10.30;5.90;;;17.30;97.80;;;;;;5492631;26;20443;-57
2024/04/13 02:15:29;;;;;;;10.20;5.47;;;17.30;97.80;;;;;;5492399;26;20451;-57
2024/04/13 02:18:00;;;;;;;11.63;5.67;;;17.20;98.00;;;;;;5492355;26;20498;-56
2024/04/13 02:20:28;;;;;;;12.60;5.43;;;17.30;98.20;;;;;;5492289;26;20451;-57
2024/04/13 02:22:56;;;;;;;6.77;4.93;;;17.20;98.10;;;;;;5492320;26;21036;-56
2024/04/13 02:25:22;;;;;;;11.20;5.53;;;17.20;98.30;;;;;;5492237;26;20564;-58
2024/04/13 02:27:50;;;;;;;10.10;5.43;;;17.20;98.40;;;;;;5492196;26;20880;-56
2024/04/13 02:30:16;;;;;;;8.60;5.07;;;17.20;98.50;;;;;;5492123;26;20240;-56
2024/04/13 02:32:45;;;;;;;13.67;5.83;;;17.10;98.60;;;;;;5491985;26;20805;-56
2024/04/13 02:35:13;;;;;;;8.57;5.10;;;17.10;98.70;;;;;;5491858;26;20812;-57
2024/04/13 02:37:42;;;;;;;12.00;5.83;;;17.10;98.80;;;;;;5491697;26;21059;-58
2024/04/13 02:40:08;;;;;;;12.23;5.77;;;17.00;98.90;;;;;;5491731;26;20569;-57
2024/04/13 02:42:38;;;;;;;9.77;5.47;;;17.00;99.10;;;;;;5491878;26;20447;-57
2024/04/13 02:45:05;;;;;;;11.57;5.93;;;17.00;99.20;;;;;;5491881;26;20439;-56
2024/04/13 02:47:34;;;;;;;9.67;5.70;;;17.00;99.30;;;;;;5491774;26;20503;-57
2024/04/13 02:50:00;;;;;;;8.90;5.40;;;17.00;99.40;;;;;;5491858;26;20507;-56
2024/04/13 02:52:31;;;;;;;14.33;6.23;;;17.00;99.60;;;;;;5491808;26;20969;-58
2024/04/13 02:54:57;;;;;;;9.53;5.63;;;17.00;99.50;;;;;;5491943;26;20219;-57
2024/04/13 02:57:26;;;;;;;9.83;5.47;;;17.00;99.60;;;;;;5491734;26;20491;-58
2024/04/13 02:59:52;;;;;;;6.43;4.90;;;16.90;99.60;;;;;;5491744;26;20345;-57
2024/04/13 03:02:23;;;;;;;10.73;5.60;;;16.90;99.70;;;;;;5491731;26;20863;-56
2024/04/13 03:04:50;;;;;;;10.83;6.10;;;16.90;99.90;;;;;;5491597;26;20327;-59
2024/04/13 03:07:19;;;;;;;8.10;5.80;;;16.90;99.90;;;;;;5491531;26;20508;-57
2024/04/13 03:09:48;;;;;;;11.77;6.10;;;16.90;99.90;;;;;;5489822;26;20565;-58
2024/04/13 03:12:16;;;;;;;8.17;5.73;;;16.90;99.90;;;;;;5491458;26;20440;-57
2024/04/13 03:14:42;;;;;;;11.27;5.80;;;16.90;99.90;;;;;;5491263;26;20464;-57
2024/04/13 03:17:11;;;;;;;9.80;4.87;;;16.90;99.90;;;;;;5491418;26;20564;-57
2024/04/13 03:19:37;;;;;;;11.60;5.33;;;16.90;99.90;;;;;;5491313;26;20480;-57
2024/04/13 03:22:05;;;;;;;11.43;6.40;;;16.90;99.80;;;;;;5491389;26;20985;-57
2024/04/13 03:24:33;;;;;;;9.37;5.87;;;16.90;99.90;;;;;;5491322;26;20230;-57
2024/04/13 03:27:05;;;;;;;15.53;6.53;;;16.90;99.90;;;;;;5491504;26;20451;-57
2024/04/13 03:29:30;;;;;;;14.60;6.20;;;16.90;99.90;;;;;;5491092;26;20455;-57
2024/04/13 03:31:59;;;;;;;11.80;5.90;;;16.90;99.80;;;;;;5491329;26;20904;-57
2024/04/13 03:34:26;;;;;;;15.27;6.93;;;16.90;99.80;;;;;;5491088;26;20222;-57
2024/04/13 03:36:54;;;;;;;9.33;5.33;;;16.90;99.80;;;;;;5491198;26;20804;-57
2024/04/13 03:39:25;;;;;;;9.13;5.50;;;16.90;99.80;;;;;;5490823;26;20483;-57
2024/04/13 03:41:54;;;;;;;11.07;6.37;;;16.90;99.80;;;;;;5491074;26;20452;-57
2024/04/13 03:44:25;;;;;;;7.73;5.17;;;16.80;99.70;;;;;;5491026;26;20511;-57
2024/04/13 03:46:51;;;;;;;14.23;5.50;;;16.80;99.60;;;;;;5491049;26;20557;-57
2024/04/13 03:49:19;;;;;;;15.13;6.10;;;16.80;99.30;;;;;;5490870;26;20471;-57
2024/04/13 03:51:45;;;;;;;11.63;5.33;;;16.70;99.10;;;;;;5490861;26;20318;-58
2024/04/13 03:54:13;;;;;;;9.97;5.70;;;16.70;98.80;;;;;;5491021;26;21001;-57
2024/04/13 03:56:39;;;;;;;13.33;5.50;;;16.70;98.70;;;;;;5490918;26;20222;-57
2024/04/13 03:59:07;;;;;;;9.67;5.00;;;16.70;98.50;;;;;;5490951;26;21107;-57
2024/04/13 04:01:36;;;;;;;8.47;5.00;;;16.60;98.40;;;;;;5490658;26;20270;-57
2024/04/13 04:04:05;;;;;;;14.10;5.87;;;16.60;98.40;;;;;;5490984;26;20500;-58
2024/04/13 04:06:31;;;;;;;5.40;4.90;;;16.60;98.40;;;;;;5490663;26;20497;-57
2024/04/13 04:09:00;;;;;;;9.33;5.70;;;16.60;98.30;;;;;;5490721;26;20463;-57
2024/04/13 04:11:27;;;;;;;10.63;5.43;;;16.60;98.30;;;;;;5490727;26;20597;-58
2024/04/13 04:13:55;;;;;;;6.00;5.10;;;16.50;98.20;;;;;;5490865;26;20452;-57
2024/04/13 04:16:21;;;;;;;10.40;5.20;;;16.50;98.10;;;;;;5490581;26;20542;-58
2024/04/13 04:18:52;;;;;;;9.40;4.90;;;16.50;98.20;;;;;;5490708;26;20475;-58
2024/04/13 04:21:19;;;;;;;6.53;4.87;;;16.50;98.20;;;;;;5490196;26;20803;-58
2024/04/13 04:23:47;;;;;;;9.30;5.27;;;16.40;98.10;;;;;;5490842;26;20463;-59
2024/04/13 04:26:13;;;;;;;11.80;5.60;;;16.40;98.10;;;;;;5490669;26;20444;-58
2024/04/13 04:28:42;;;;;;;8.70;5.63;;;16.40;98.00;;;;;;5490360;26;21041;-57
2024/04/13 04:31:12;;;;;;;7.43;4.60;;;16.40;98.00;;;;;;5490583;26;20254;-57
2024/04/13 04:33:41;;;;;;;8.20;4.87;;;16.40;97.90;;;;;;5490363;26;20989;-58
2024/04/13 04:36:10;;;;;;;7.37;5.20;;;16.40;97.90;;;;;;5490341;26;20985;-58
2024/04/13 04:38:38;;;;;;;7.00;5.27;;;16.40;98.00;;;;;;5490107;26;20468;-58
2024/04/13 04:41:04;;;;;;;12.30;5.27;;;16.40;98.20;;;;;;5490153;26;20447;-58
2024/04/13 04:43:33;;;;;;;11.00;5.23;;;16.40;98.50;;;;;;5490163;26;20448;-58
2024/04/13 04:45:58;;;;;;;8.53;5.77;;;16.30;98.70;;;;;;5490071;26;20500;-58
2024/04/13 04:48:27;;;;;;;8.43;5.70;;;16.30;98.90;;;;;;5490004;26;20475;-58
2024/04/13 04:50:57;;;;;;;8.50;5.10;;;16.30;99.00;;;;;;5490244;26;20222;-57
2024/04/13 04:53:29;;;;;;;12.23;5.30;;;16.30;99.00;;;;;;5489853;26;20839;-57
2024/04/13 04:55:56;;;;;;;12.47;6.03;;;16.30;98.80;;;;;;5490138;26;20456;-57
2024/04/13 04:58:25;;;;;;;11.03;5.83;;;16.20;98.70;;;;;;5489901;26;20468;-57
2024/04/13 05:00:51;;;;;;;12.03;5.60;;;16.30;98.80;;;;;;5490074;26;20448;-57
2024/04/13 05:03:20;;;;;;;11.03;5.70;;;16.20;99.00;;;;;;5489826;26;20488;-57
2024/04/13 05:05:45;;;;;;;8.60;4.97;;;16.20;99.20;;;;;;5490019;26;20222;-57
2024/04/13 05:08:14;;;;;;;20.77;7.50;;;16.20;99.30;;;;;;5489790;26;20464;-56
2024/04/13 05:10:43;;;;;;;13.80;5.90;;;16.30;99.50;;;;;;5489534;26;20260;-58
2024/04/13 05:13:11;;;;;;;11.33;5.80;;;16.30;99.60;;;;;;5489810;26;20440;-57
2024/04/13 05:15:38;;;;;;;9.33;6.00;;;16.20;99.60;;;;;;5489546;26;20448;-57
2024/04/13 05:18:07;;;;;;;7.47;6.67;;;16.30;99.90;;;;;;5489693;26;20524;-57
2024/04/13 05:20:34;;;;;;;7.87;5.40;;;16.30;99.90;;;;;;5489611;26;20463;-58
2024/04/13 05:23:03;;;;;;;11.50;6.93;;;16.30;99.90;;;;;;5489616;26;21052;-57
2024/04/13 05:25:28;;;;;;;8.90;5.60;;;16.30;99.70;;;;;;5489480;26;20538;-58
2024/04/13 05:28:00;;;;;;;14.37;5.70;;;16.30;99.50;;;;;;5489381;26;20459;-57
2024/04/13 05:30:26;;;;;;;10.20;5.63;;;16.30;99.50;;;;;;5489605;26;20390;-58
2024/04/13 05:32:54;;;;;;;8.60;5.47;;;16.30;99.50;;;;;;5488167;26;20472;-57
2024/04/13 05:35:20;;;;;;;6.60;5.00;;;16.40;99.50;;;;;;5489369;26;20492;-57
2024/04/13 05:37:49;;;;;;;7.57;5.57;;;16.40;99.50;;;;;;5489275;26;20448;-57
2024/04/13 05:40:15;;;;;;;12.40;6.10;;;16.40;99.60;;;;;;5489287;26;20211;-57
2024/04/13 05:42:43;;;;;;;10.10;6.40;;;16.40;99.90;;;;;;5489199;26;20455;-57
2024/04/13 05:45:12;;;;;;;7.33;5.67;;;16.40;99.90;;;;;;5489182;26;20569;-58
2024/04/13 05:47:43;;;;;;;13.43;6.80;;;16.50;99.90;;;;;;5489016;26;20575;-58
2024/04/13 05:50:09;;;;;;;8.33;5.27;;;16.50;99.90;;;;;;5489059;26;20494;-58
2024/04/13 05:52:37;;;;;;;5.77;5.20;;;16.50;99.90;;;;;;5489182;26;20444;-58
2024/04/13 05:55:04;;;;;;;8.40;6.20;;;16.60;99.90;;;;;;5488979;26;20226;-57
2024/04/13 05:57:32;;;;;;;8.93;5.50;;;16.60;99.90;;;;;;5488969;26;20439;-58
2024/04/13 05:59:58;;;;;;;11.00;6.20;;;16.70;99.90;;;;;;5489042;26;20838;-58
2024/04/13 06:02:29;;;;;;;8.97;5.10;;;16.80;99.90;;;;;;5488993;26;20440;-59
2024/04/13 06:04:55;;;;;;;8.93;6.17;;;16.90;99.90;;;;;;5488964;26;20245;-57
2024/04/13 06:07:23;;;;;;;6.93;5.33;;;16.90;99.90;;;;;;5488775;26;20464;-58
2024/04/13 06:09:50;;;;;;;9.60;6.00;;;17.00;99.90;;;;;;5488572;26;20724;-58
2024/04/13 06:12:18;;;;;;;8.20;5.73;;;17.10;99.90;;;;;;5488731;26;20439;-59
2024/04/13 06:14:47;;;;;;;6.87;5.57;;;17.10;99.90;;;;;;5488813;26;20450;-58
2024/04/13 06:17:16;;;;;;;6.50;5.23;;;17.30;99.90;;;;;;5488849;26;20862;-58
2024/04/13 06:19:44;;;;;;;8.07;5.93;;;17.30;99.90;;;;;;5488686;26;20455;-58
2024/04/13 06:22:13;;;;;;;6.97;5.40;;;17.40;99.90;;;;;;5488445;26;21029;-58
2024/04/13 06:24:39;;;;;;;5.80;5.00;;;17.40;99.80;;;;;;5488617;26;20455;-58
2024/04/13 06:27:09;;;;;;;12.20;5.37;;;17.50;99.60;;;;;;5488580;26;20464;-58
2024/04/13 06:29:35;;;;;;;9.17;5.60;;;17.60;99.60;;;;;;5488452;26;20455;-58
2024/04/13 06:32:04;;;;;;;7.27;4.70;;;17.60;99.60;;;;;;5488519;26;20499;-58
2024/04/13 06:34:30;;;;;;;7.80;4.97;;;17.70;99.50;;;;;;5488279;26;20495;-58
2024/04/13 06:37:01;;;;;;;5.90;5.37;;;17.80;99.30;;;;;;5488365;26;20467;-58
2024/04/13 06:39:27;;;;;;;7.67;5.60;;;17.90;99.20;;;;;;5488064;26;20780;-59
2024/04/13 06:41:55;;;;;;;10.80;5.47;;;18.00;99.10;;;;;;5488020;26;20572;-58
2024/04/13 06:44:21;;;;;;;7.67;5.23;;;18.00;99.00;;;;;;5489309;26;20211;-57
2024/04/13 06:46:51;;;;;;;7.53;4.60;;;18.10;98.90;;;;;;5491958;26;20490;-58
2024/04/13 06:49:17;;;;;;;8.10;5.00;;;18.20;98.80;;;;;;5491566;26;20230;-58
2024/04/13 06:51:45;;;;;;;6.13;5.50;;;18.20;98.60;;;;;;5491852;26;20556;-57
2024/04/13 06:54:14;;;;;;;7.33;5.37;;;18.30;98.60;;;;;;5491816;26;20564;-57
2024/04/13 06:56:42;;;;;;;7.80;5.53;;;18.30;98.60;;;;;;5491595;26;20447;-58
2024/04/13 06:59:08;;;;;;;6.20;4.93;;;18.40;98.50;;;;;;5491516;26;21069;-57
2024/04/13 07:01:37;;;;;;;5.90;5.30;;;18.40;98.40;;;;;;5491643;26;20455;-58
2024/04/13 07:04:03;;;;;;;6.97;4.77;;;18.50;98.10;;;;;;5520072;26;20234;-57
2024/04/13 07:06:34;;;;;;;7.47;5.17;;;18.50;98.20;;;;;;5527121;25;20502;-58
2024/04/13 07:09:00;;;;;;;5.60;5.10;;;18.50;98.10;;;;;;5527988;25;20466;-57
2024/04/13 07:11:32;;;;;;;6.80;5.40;;;18.60;98.10;;;;;;5528155;25;20458;-58
2024/04/13 07:13:58;;;;;;;8.23;5.43;;;18.70;98.00;;;;;;5528006;25;20261;-59
2024/04/13 07:16:26;;;;;;;5.27;4.77;;;18.70;97.90;;;;;;5527959;25;20961;-57
2024/04/13 07:18:52;;;;;;;9.07;4.83;;;18.80;97.80;;;;;;5527820;25;20710;-56
2024/04/13 07:21:20;;;;;;;6.43;5.40;;;19.00;97.60;;;;;;5527795;25;20458;-56
2024/04/13 07:23:46;;;;;;;11.07;5.43;;;19.10;97.50;;;;;;5528021;25;20719;-56
2024/04/13 07:26:14;;;;;;;7.87;4.90;;;19.30;97.40;;;;;;5528015;25;20446;-57
2024/04/13 07:28:43;;;;;;;8.83;5.10;;;19.40;97.20;;;;;;5527853;25;20229;-56
2024/04/13 07:31:11;;;;;;;10.00;5.30;;;19.60;96.90;;;;;;5528067;25;20559;-56
2024/04/13 07:33:37;;;;;;;7.60;4.73;;;19.60;96.70;;;;;;5527906;25;20559;-57
2024/04/13 07:36:06;;;;;;;7.77;4.90;;;19.60;96.40;;;;;;5527849;25;20457;-56
2024/04/13 07:38:33;;;;;;;6.10;4.87;;;19.60;96.20;;;;;;5527840;25;20344;-56
2024/04/13 07:41:01;;;;;;;6.27;5.03;;;19.70;96.30;;;;;;5527776;25;20502;-56
2024/04/13 07:43:29;;;;;;;7.60;4.77;;;19.80;96.10;;;;;;5527677;25;20450;-57
2024/04/13 07:46:00;;;;;;;8.50;4.70;;;19.90;96.10;;;;;;5527561;25;20546;-57
2024/04/13 07:48:26;;;;;;;8.43;5.47;;;20.00;96.00;;;;;;5527627;25;20491;-56
2024/04/13 07:50:54;;;;;;;9.27;5.30;;;20.20;95.90;;;;;;5527556;25;20458;-56
2024/04/13 07:53:20;;;;;;;11.87;5.03;;;20.30;95.60;;;;;;5527728;25;20237;-56
2024/04/13 07:55:50;;;;;;;18.37;5.27;;;20.50;95.40;;;;;;5526515;25;20559;-57
2024/04/13 07:58:16;;;;;;;11.37;4.37;;;20.60;95.20;;;;;;5527398;25;20659;-56
2024/04/13 08:00:45;;;;;;;11.63;4.30;;;20.90;94.90;;;;;;5527565;25;20991;-56
2024/04/13 08:03:13;;;;;;;12.10;4.10;;;21.00;94.60;;;;;;5527359;25;20447;-56
2024/04/13 08:05:42;;;;;;;11.53;4.77;;;21.10;93.90;;;;;;5527238;25;20862;-56
2024/04/13 08:08:07;;;;;;;7.50;3.80;;;21.20;93.70;;;;;;5527580;25;20474;-56
2024/04/13 08:10:42;;;;;;;11.03;4.00;;;21.30;93.60;;;;;;5527222;25;20803;-57
2024/04/13 08:13:08;;;;;;;6.70;3.90;;;21.60;93.60;;;;;;5527255;25;20441;-57
2024/04/13 08:15:40;;;;;;;6.73;3.43;;;21.80;93.10;;;;;;5527501;25;20454;-57
2024/04/13 08:18:06;;;;;;;6.60;3.50;;;21.90;92.00;;;;;;5527179;25;20225;-55
2024/04/13 08:20:37;;;;;;;4.30;3.00;;;22.10;91.60;;;;;;5527179;25;20539;-56
2024/04/13 08:23:05;;;;;;;7.90;3.50;;;22.20;91.40;;;;;;5527237;25;20214;-56
2024/04/13 08:25:33;;;;;;;3.73;3.33;;;22.30;90.70;;;;;;5526991;25;20612;-57
2024/04/13 08:28:00;;;;;;;6.10;3.70;;;22.30;90.70;;;;;;5526935;25;20556;-56
2024/04/13 08:30:29;;;;;;;8.30;3.40;;;22.30;90.40;;;;;;5526975;25;20450;-56
2024/04/13 08:32:55;;;;;;;3.63;3.03;;;22.30;90.40;;;;;;5527300;25;20260;-57
2024/04/13 08:35:23;;;;;;;4.93;3.30;;;22.40;90.50;;;;;;5527080;25;20449;-57
2024/04/13 08:37:52;;;;;;;6.67;3.30;;;22.50;90.60;;;;;;5527350;25;20320;-56
2024/04/13 08:40:20;;;;;;;6.87;2.83;;;22.50;90.10;;;;;;5528494;25;20446;-56
2024/04/13 08:42:53;;;;;;;5.30;3.30;;;22.60;89.40;;;;;;5528410;25;20559;-56
2024/04/13 08:45:22;;;;;;;9.13;3.17;;;22.60;88.90;;;;;;5527135;25;20458;-56
2024/04/13 08:47:51;;;;;;;8.57;3.30;;;22.70;89.20;;;;;;5526703;25;20442;-56
2024/04/13 08:50:19;;;;;;;3.70;3.03;;;22.80;88.90;;;;;;5526466;25;20458;-56
2024/04/13 08:52:46;;;;;;;3.80;3.50;;;22.90;88.10;;;;;;5526883;25;20552;-56
2024/04/13 08:55:17;;;;;;;7.23;3.00;;;22.90;87.40;;;;;;5526548;25;20500;-55
2024/04/13 08:57:44;;;;;;;7.43;3.83;;;23.00;87.30;;;;;;5526470;25;20926;-57
2024/04/13 09:00:16;;;;;;;8.13;3.10;;;23.10;86.90;;;;;;5527086;25;20446;-56
2024/04/13 09:02:44;;;;;;;4.33;2.90;;;23.20;85.70;;;;;;5526651;25;20499;-56
2024/04/13 09:05:15;;;;;;;6.07;3.07;;;23.40;85.90;;;;;;5526660;25;20490;-56
2024/04/13 09:07:42;;;;;;;10.30;3.30;;;23.60;87.60;;;;;;5526399;25;20828;-56
2024/04/13 09:10:14;;;;;;;6.07;3.00;;;23.80;84.30;;;;;;5526304;25;20492;-56
2024/04/13 09:12:43;;;;;;;4.00;2.27;;;24.00;82.90;;;;;;5526206;25;20502;-57
2024/04/13 09:15:12;;;;;;;4.83;2.90;;;24.20;81.90;;;;;;5526049;25;20442;-56
2024/04/13 09:17:38;;;;;;;5.23;3.00;;;24.20;80.50;;;;;;5526270;25;20478;-57
2024/04/13 09:20:09;;;;;;;6.13;3.23;;;24.20;80.60;;;;;;5526185;25;20462;-57
2024/04/13 09:22:36;;;;;;;6.17;2.87;;;24.30;80.60;;;;;;5526180;25;20502;-57
2024/04/13 09:25:04;;;;;;;7.20;2.60;;;24.30;80.40;;;;;;5526332;25;20565;-56
2024/04/13 09:27:31;;;;;;;13.27;3.50;;;24.50;80.30;;;;;;5526275;25;20559;-57
2024/04/13 09:30:11;;;;;;;6.87;2.67;;;24.60;80.00;;;;;;5526133;25;20529;-56
2024/04/13 09:32:36;;;;;;;6.10;3.00;;;24.90;78.90;;;;;;5525956;25;20501;-57
2024/04/13 09:35:12;;;;;;;4.07;2.57;;;25.10;76.90;;;;;;5526111;25;20458;-56
2024/04/13 09:37:38;;;;;;;4.63;2.27;;;25.10;75.60;;;;;;5526303;25;20251;-57
2024/04/13 09:40:10;;;;;;;5.20;2.63;;;25.20;76.70;;;;;;5525873;25;20466;-56
2024/04/13 09:42:36;;;;;;;6.73;2.87;;;25.30;74.80;;;;;;5526078;25;20458;-56
2024/04/13 09:45:12;;;;;;;3.77;2.50;;;25.40;73.30;;;;;;5525878;25;20450;-56
2024/04/13 09:47:38;;;;;;;6.57;3.00;;;25.40;73.60;;;;;;5524719;25;20213;-58
2024/04/13 09:50:07;;;;;;;5.33;2.30;;;25.50;72.70;;;;;;5508196;26;20458;-57
2024/04/13 09:52:33;;;;;;;3.43;2.83;;;25.70;72.20;;;;;;5525518;25;20225;-57
2024/04/13 09:55:02;;;;;;;7.03;3.60;;;25.80;71.30;;;;;;5525806;25;20442;-57
2024/04/13 09:57:28;;;;;;;3.47;2.47;;;25.80;70.80;;;;;;5525663;25;20454;-57
2024/04/13 09:59:57;;;;;;;4.13;2.90;;;25.80;70.40;;;;;;5525580;25;20463;-56
2024/04/13 10:02:26;;;;;;;3.03;2.47;;;25.90;69.70;;;;;;5525699;25;20221;-56
2024/04/13 10:04:54;;;;;;;3.13;2.60;;;25.90;69.20;;;;;;5525547;25;20488;-56
2024/04/13 10:07:24;;;;;;;4.63;3.10;;;26.10;69.10;;;;;;5525019;25;20591;-57
2024/04/13 10:10:03;;;;;;;4.60;3.07;;;26.40;67.90;;;;;;5525236;25;20525;-56
2024/04/13 10:12:32;;;;;;;6.40;2.90;;;26.60;65.70;;;;;;5525449;25;20802;-56
2024/04/13 10:15:03;;;;;;;5.13;2.83;;;26.60;66.40;;;;;;5525626;25;20494;-56
2024/04/13 10:17:32;;;;;;;5.00;3.00;;;26.60;66.40;;;;;;5525239;25;20513;-57
2024/04/13 10:20:01;;;;;;;3.73;3.20;;;26.80;64.70;;;;;;5526920;25;20466;-56
2024/04/13 10:22:27;;;;;;;5.13;3.20;;;26.80;63.60;;;;;;5528570;25;20453;-58
2024/04/13 10:24:55;;;;;;;7.80;2.63;;;26.70;63.10;;;;;;5529039;25;20498;-57
2024/04/13 10:27:22;;;;;;;3.87;2.70;;;26.80;64.60;;;;;;5529073;25;20442;-56
2024/04/13 10:29:51;;;;;;;5.47;2.87;;;27.00;63.40;;;;;;5528677;25;20458;-56
2024/04/13 10:32:19;;;;;;;7.90;3.07;;;27.20;63.00;;;;;;5528842;25;20458;-56
2024/04/13 10:34:51;;;;;;;6.47;3.03;;;27.40;61.60;;;;;;5528757;25;20897;-57
2024/04/13 10:37:24;;;;;;;14.10;3.20;;;27.60;60.30;;;;;;5528989;25;20458;-56
2024/04/13 10:39:56;;;;;;;7.67;2.70;;;27.90;59.80;;;;;;5528769;25;20461;-57
2024/04/13 10:42:33;;;;;;;4.90;2.40;;;28.30;58.60;;;;;;5528755;25;21076;-56
2024/04/13 10:45:03;;;;;;;3.97;2.63;;;28.60;57.50;;;;;;5528748;25;20450;-57
2024/04/13 10:47:30;;;;;;;4.80;2.37;;;28.90;56.00;;;;;;5513788;25;20451;-56
2024/04/13 10:50:01;;;;;;;4.80;2.83;;;29.20;55.30;;;;;;5491432;26;20466;-57
2024/04/13 10:52:28;;;;;;;5.87;2.20;;;29.40;54.10;;;;;;5491684;26;20498;-57
2024/04/13 10:54:57;;;;;;;5.03;2.47;;;29.50;52.90;;;;;;5491728;26;20450;-56
2024/04/13 10:57:24;;;;;;;2.40;2.00;;;29.80;52.00;;;;;;5491389;26;20455;-57
2024/04/13 10:59:53;;;;;;;2.80;2.13;;;29.80;51.00;;;;;;5491420;26;20459;-56
2024/04/13 11:02:19;;;;;;;4.67;2.13;;;30.00;52.60;;;;;;5491671;26;20494;-56
2024/04/13 11:04:48;;;;;;;2.93;2.20;;;30.30;50.70;;;;;;5491234;26;20447;-56
2024/04/13 11:07:18;;;;;;;6.23;1.77;;;30.80;49.70;;;;;;5491499;26;20279;-58
2024/04/13 11:09:46;;;;;;;3.73;2.13;;;31.20;48.60;;;;;;5491378;26;20451;-54
2024/04/13 11:12:13;;;;;;;4.47;2.47;;;31.70;47.90;;;;;;5491311;26;20447;-55
2024/04/13 11:14:42;;;;;;;3.63;2.20;;;32.30;47.00;;;;;;5491190;26;20534;-56
2024/04/13 11:17:09;;;;;;;5.80;2.50;;;32.70;44.10;;;;;;5491263;26;20503;-56
2024/04/13 11:19:37;;;;;;;5.47;2.80;;;33.00;43.50;;;;;;5491074;26;20507;-57
2024/04/13 11:22:04;;;;;;;5.97;3.27;;;33.40;41.90;;;;;;5491159;26;20256;-55
2024/04/13 11:24:35;;;;;;;3.53;2.53;;;33.70;41.30;;;;;;5491328;26;20451;-56
2024/04/13 11:27:02;;;;;;;7.27;2.37;;;34.00;41.20;;;;;;5491033;26;20213;-56
2024/04/13 11:29:31;;;;;;;6.03;2.83;;;34.30;40.40;;;;;;5490819;26;20230;-56
2024/04/13 11:31:58;;;;;;;4.63;2.83;;;34.60;40.00;;;;;;5489579;26;20214;-56
2024/04/13 11:34:26;;;;;;;4.07;2.73;;;34.70;38.10;;;;;;5490838;26;20218;-56
2024/04/13 11:37:00;;;;;;;7.97;3.17;;;34.60;38.40;;;;;;5491275;26;20222;-56
2024/04/13 11:39:29;;;;;;;4.07;2.50;;;34.80;37.90;;;;;;5490813;26;20321;-56
2024/04/13 11:42:01;;;;;;;5.57;3.15;;;34.70;37.10;;;;;;5490909;26;20218;-56
2024/04/13 11:44:30;;;;;;;6.30;2.40;;;34.70;37.30;;;;;;5490925;26;20206;-56
2024/04/13 11:46:56;;;;;;;5.68;2.33;;;34.60;39.00;;;;;;5490663;26;20230;-56
2024/04/13 11:49:25;;;;;;;3.65;2.05;;;35.00;37.90;;;;;;5490593;26;20230;-56
2024/04/13 11:51:51;;;;;;;3.95;2.30;;;35.30;35.70;;;;;;5490519;26;20568;-58
2024/04/13 11:54:19;;;;;;;3.05;2.40;;;35.50;34.70;;;;;;5490502;26;20255;-56
2024/04/13 11:56:45;;;;;;;4.45;2.30;;;35.60;34.60;;;;;;5490535;26;20225;-56
2024/04/13 11:59:17;;;;;;;3.00;2.28;;;35.80;33.30;;;;;;5490630;26;20329;-57
2024/04/13 12:01:43;;;;;;;4.72;2.22;;;36.10;32.90;;;;;;5490459;26;20214;-57
2024/04/13 12:04:13;;;;;;;7.32;2.85;;;36.30;32.70;;;;;;5490545;26;20253;-56
2024/04/13 12:06:39;;;;;;;7.68;2.70;;;36.50;32.60;;;;;;5490547;26;20389;-57
2024/04/13 12:09:09;;;;;;;3.58;2.60;;;36.10;32.20;;;;;;5490449;26;20312;-56
2024/04/13 12:11:35;;;;;;;3.88;2.67;;;35.90;32.20;;;;;;5490415;26;20251;-57
2024/04/13 12:14:04;;;;;;;4.88;2.60;;;36.00;32.30;;;;;;5490544;26;20217;-56
2024/04/13 12:16:33;;;;;;;2.78;2.30;;;36.10;32.70;;;;;;5490428;26;20218;-57
2024/04/13 12:19:03;;;;;;;2.78;2.42;;;36.40;32.50;;;;;;5490528;26;20329;-56
2024/04/13 12:21:29;;;;;;;4.15;2.40;;;36.60;31.50;;;;;;5490280;26;20210;-57
2024/04/13 12:23:58;;;;;;;2.58;2.00;;;37.10;31.20;;;;;;5490249;26;20540;-57
2024/04/13 12:26:24;;;;;;;5.65;2.60;;;37.50;30.20;;;;;;5490111;26;20264;-57
2024/04/13 12:28:53;;;;;;;8.35;2.80;;;37.80;29.80;;;;;;5490202;26;20355;-56
2024/04/13 12:31:18;;;;;;;3.75;2.08;;;38.20;29.10;;;;;;5489896;26;20230;-57
2024/04/13 12:33:50;;;;;;;2.83;2.10;;;38.70;29.50;;;;;;5490188;26;20258;-56
2024/04/13 12:36:15;;;;;;;5.35;2.38;;;38.80;28.10;;;;;;5490263;26;20214;-56
2024/04/13 12:38:44;;;;;;;3.72;2.00;;;38.80;28.20;;;;;;5490022;26;20280;-57
2024/04/13 12:41:13;;;;;;;2.63;1.80;;;38.80;29.00;;;;;;5490362;26;20257;-57
2024/04/13 12:43:41;;;;;;;3.72;2.25;;;38.70;28.90;;;;;;5489782;26;20221;-57
2024/04/13 12:46:07;;;;;;;4.13;2.10;;;38.60;28.30;;;;;;5490271;26;20294;-57
2024/04/13 12:48:36;;;;;;;3.65;1.95;;;38.50;28.80;;;;;;5490255;26;20241;-57